Time;durP1;ratioP1;P1;durP2;ratioP2;P2;SDS_P1;SDS_P2;PMS_P1;PMS_P2;Temp;Humidity;BMP_temperature;BMP_pressure;BME280_temperature;BME280_humidity;BME280_pressure;Samples;Min_cycle;Max_cycle;Signal;HPM_P1;HPM_P2
2022/02/02 00:01:38;;;;;;;;;10.00;8.00;;;;;12.38;81.64;102101.00;5054577;28;45458;-71
2022/02/02 00:04:06;;;;;;;;;5.50;5.50;;;;;12.39;81.64;102107.13;5056845;28;46786;-71
2022/02/02 00:06:42;;;;;;;;;4.75;3.25;;;;;12.38;82.03;102094.84;5056704;28;45368;-71
2022/02/02 00:09:12;;;;;;;;;9.25;5.25;;;;;12.39;81.40;102091.31;5056794;28;45319;-71
2022/02/02 00:14:22;;;;;;;;;8.25;4.50;;;;;12.39;81.45;102097.44;5055178;28;45482;-71
2022/02/02 00:19:41;;;;;;;;;4.00;4.00;;;;;12.41;81.43;102113.19;5056830;28;45343;-71
2022/02/02 00:22:13;;;;;;;;;4.50;4.00;;;;;12.37;81.40;102106.28;5056611;28;45743;-72
2022/02/02 00:27:15;;;;;;;;;5.00;4.00;;;;;12.40;81.30;102093.03;5056663;28;45539;-71
2022/02/02 00:29:47;;;;;;;;;8.00;7.75;;;;;12.39;81.43;102086.03;5055624;28;45535;-71
2022/02/02 00:32:26;;;;;;;;;9.00;5.00;;;;;12.40;81.21;102090.38;5056371;28;45598;-71
2022/02/02 00:34:51;;;;;;;;;8.75;4.00;;;;;12.39;81.28;102080.75;5055040;28;46572;-71
2022/02/02 00:37:17;;;;;;;;;4.00;4.00;;;;;12.38;81.58;102089.59;5056352;28;45526;-71
2022/02/02 00:39:43;;;;;;;;;4.50;4.00;;;;;12.38;81.16;102093.09;5071355;28;45345;-71
2022/02/02 00:42:08;;;;;;;;;4.75;3.75;;;;;12.37;81.33;102086.09;5055862;28;45336;-71
2022/02/02 00:44:36;;;;;;;;;5.00;3.75;;;;;12.38;81.10;102094.84;5055556;28;46359;-71
2022/02/02 00:47:02;;;;;;;;;4.50;4.00;;;;;12.36;81.06;102094.03;5055786;28;45800;-71
2022/02/02 00:49:27;;;;;;;;;10.00;5.00;;;;;12.34;81.14;102096.72;5055963;28;45490;-71
2022/02/02 00:51:57;;;;;;;;;6.75;4.75;;;;;12.35;81.42;102094.94;5055910;28;45591;-71
2022/02/02 00:54:26;;;;;;;;;6.00;4.00;;;;;12.33;81.50;102086.22;5055837;28;45415;-71
2022/02/02 00:56:52;;;;;;;;;6.25;5.00;;;;;12.33;81.14;102107.31;5054128;28;45644;-71
2022/02/02 00:59:18;;;;;;;;;7.75;5.25;;;;;12.34;81.09;102111.66;5056219;28;45513;-71
2022/02/02 01:01:45;;;;;;;;;9.00;4.50;;;;;12.33;81.25;102112.56;5054190;28;45392;-71
2022/02/02 01:04:10;;;;;;;;;6.50;4.00;;;;;12.30;81.17;102102.97;5054450;28;45599;-71
2022/02/02 01:06:41;;;;;;;;;5.00;5.00;;;;;12.28;81.26;102108.28;5056577;27;45426;-71
2022/02/02 01:21:57;;;;;;;;;7.75;5.00;;;;;12.32;81.42;102108.19;5054802;28;45253;-71
2022/02/02 01:29:51;;;;;;;;;5.00;4.50;;;;;12.15;81.20;102101.63;5056209;28;45304;-71
2022/02/02 01:32:16;;;;;;;;;8.25;7.00;;;;;12.07;81.26;102114.16;5055695;28;45578;-71
2022/02/02 01:34:41;;;;;;;;;11.50;5.00;;;;;12.02;81.44;102102.88;5054359;28;46465;-71
2022/02/02 01:37:07;;;;;;;;;5.00;4.75;;;;;12.02;81.50;102110.78;5054928;28;45485;-71
2022/02/02 01:39:33;;;;;;;;;4.75;4.00;;;;;12.01;81.86;102117.81;5054894;28;45489;-71
2022/02/02 01:42:01;;;;;;;;;10.50;4.00;;;;;12.00;81.54;102109.94;5071076;27;45577;-71
2022/02/02 01:44:50;;;;;;;;;6.00;4.00;;;;;11.95;81.65;102111.84;5055124;28;45680;-71
2022/02/02 01:47:16;;;;;;;;;5.00;4.50;;;;;11.84;82.12;102106.84;5054229;28;45479;-71
2022/02/02 01:55:00;;;;;;;;;4.50;4.50;;;;;11.65;81.92;102106.44;5053756;28;45988;-71
2022/02/02 02:00:11;;;;;;;;;11.00;6.75;;;;;11.55;82.42;102107.59;5055212;28;45581;-71
2022/02/02 02:02:37;;;;;;;;;7.50;4.00;;;;;11.52;82.68;102117.31;5055657;28;45384;-71
2022/02/02 02:05:04;;;;;;;;;8.00;7.25;;;;;11.49;82.82;102113.00;5054779;28;46624;-71
2022/02/02 02:07:29;;;;;;;;;9.75;8.25;;;;;11.45;83.03;102109.56;5055100;28;45962;-71
2022/02/02 02:09:57;;;;;;;;;6.50;5.00;;;;;11.40;82.94;102113.22;5052781;28;56004;-71
2022/02/02 02:12:23;;;;;;;;;5.25;4.75;;;;;11.40;83.39;102115.84;5055072;28;45457;-71
2022/02/02 02:14:59;;;;;;;;;5.00;4.00;;;;;11.47;83.43;102120.91;5054640;28;45513;-71
2022/02/02 02:17:26;;;;;;;;;4.75;4.75;;;;;11.53;83.51;102113.78;5056974;28;45604;-71
2022/02/02 02:19:52;;;;;;;;;8.00;7.00;;;;;11.60;83.61;102118.00;5055301;28;45505;-71
2022/02/02 02:22:24;;;;;;;;;7.50;5.00;;;;;11.60;83.51;102108.34;5055511;28;45519;-71
2022/02/02 02:24:50;;;;;;;;;10.00;4.75;;;;;11.67;83.30;102111.66;5048430;28;46110;-71
2022/02/02 02:27:18;;;;;;;;;8.50;6.25;;;;;11.72;83.67;102117.69;5056809;28;45774;-71
2022/02/02 02:30:03;;;;;;;;;7.00;4.25;;;;;11.76;83.16;102120.19;5053835;28;45537;-71
2022/02/02 02:32:47;;;;;;;;;9.00;6.00;;;;;11.73;83.13;102104.47;5048113;28;45356;-71
2022/02/02 02:57:02;;;;;;;;;7.75;5.75;;;;;11.98;83.08;102096.81;5054728;28;45640;-71
2022/02/02 02:59:40;;;;;;;;;8.50;8.50;;;;;12.02;83.04;102102.88;5056302;28;45579;-72
2022/02/02 03:29:54;;;;;;;;;8.75;8.25;;;;;12.13;82.51;102106.09;5055411;28;45464;-71
2022/02/02 03:54:00;;;;;;;;;11.25;8.50;;;;;12.08;83.07;102115.88;5054707;28;45447;-72
2022/02/02 04:07:07;;;;;;;;;12.25;9.00;;;;;12.17;83.43;102118.28;5053803;28;45366;-71
2022/02/02 04:09:36;;;;;;;;;11.00;9.00;;;;;12.16;83.15;102124.47;5053703;28;45466;-71
2022/02/02 04:54:34;;;;;;;;;7.00;7.00;;;;;11.37;83.83;102129.94;5035598;28;45553;-71
2022/02/02 05:07:29;;;;;;;;;8.75;6.75;;;;;11.17;84.58;102122.53;5048572;28;45338;-71
2022/02/02 05:29:17;;;;;;;;;8.00;7.50;;;;;11.17;84.79;102140.97;5055258;28;45440;-71
2022/02/02 05:49:47;;;;;;;;;16.25;13.25;;;;;11.11;84.83;102150.72;5055677;28;45749;-72
2022/02/02 05:52:13;;;;;;;;;12.50;10.00;;;;;11.10;85.15;102157.75;5054358;28;45473;-72
2022/02/02 05:54:38;;;;;;;;;12.25;9.25;;;;;11.15;85.09;102160.28;5055487;28;45579;-72
2022/02/02 05:57:11;;;;;;;;;13.00;10.00;;;;;11.17;85.31;102167.28;5054129;28;46232;-72
2022/02/02 05:59:40;;;;;;;;;10.00;10.00;;;;;11.18;85.47;102166.38;5055314;28;45640;-71
2022/02/02 06:02:10;;;;;;;;;15.25;10.00;;;;;11.19;85.26;102168.09;5054847;28;45498;-72
2022/02/02 06:04:43;;;;;;;;;17.25;11.50;;;;;11.22;85.42;102172.41;5054289;28;45468;-72
2022/02/02 06:07:10;;;;;;;;;9.75;8.25;;;;;11.27;85.55;102182.81;5053613;28;46386;-72
2022/02/02 06:09:39;;;;;;;;;12.00;9.50;;;;;11.30;85.05;102181.00;5054602;28;45643;-72
2022/02/02 06:12:05;;;;;;;;;13.00;10.00;;;;;11.36;85.23;102180.00;5055705;28;45461;-71
2022/02/02 06:14:31;;;;;;;;;12.00;8.00;;;;;11.41;85.20;102173.72;5055587;28;45430;-71
2022/02/02 06:17:05;;;;;;;;;10.25;8.00;;;;;11.50;84.86;102175.28;5054218;28;46518;-72
2022/02/02 06:19:31;;;;;;;;;10.25;9.00;;;;;11.54;84.73;102181.31;5054756;28;45843;-72
2022/02/02 06:22:10;;;;;;;;;16.00;11.00;;;;;11.51;84.84;102174.38;5053876;28;45314;-71
2022/02/02 06:24:43;;;;;;;;;14.00;9.25;;;;;11.63;84.88;102187.22;5053804;28;45584;-71
2022/02/02 06:27:09;;;;;;;;;12.25;11.00;;;;;11.64;84.44;102188.09;5054461;28;46467;-72
2022/02/02 06:29:43;;;;;;;;;13.75;9.50;;;;;11.69;84.42;102192.38;5053584;28;45453;-71
2022/02/02 06:32:14;;;;;;;;;14.00;11.25;;;;;11.70;84.23;102190.59;5054376;28;45644;-71
2022/02/02 06:34:45;;;;;;;;;11.75;11.50;;;;;11.76;84.35;102187.81;5058533;28;45395;-72
2022/02/02 06:37:12;;;;;;;;;15.25;13.50;;;;;11.77;84.01;102184.28;5056563;28;46687;-72
2022/02/02 06:39:39;;;;;;;;;12.00;9.50;;;;;11.82;84.01;102197.38;5056961;28;45353;-72
2022/02/02 06:42:10;;;;;;;;;20.75;14.25;;;;;11.84;84.25;102191.13;5058787;28;45400;-71
2022/02/02 06:44:42;;;;;;;;;12.75;9.00;;;;;11.89;84.03;102204.19;5058406;28;45494;-72
2022/02/02 06:47:08;;;;;;;;;13.75;11.25;;;;;11.91;83.90;102197.16;5056613;28;47808;-72
2022/02/02 06:49:35;;;;;;;;;16.50;12.50;;;;;11.88;83.91;102192.81;5058629;28;45489;-72
2022/02/02 06:52:10;;;;;;;;;15.00;14.00;;;;;11.90;83.43;102196.28;5055967;28;45577;-71
2022/02/02 06:54:51;;;;;;;;;23.00;21.25;;;;;11.95;83.71;102201.41;5057272;28;45561;-71
2022/02/02 06:57:35;;;;;;;;;9.00;5.00;;;;;11.98;83.67;102209.25;5057763;28;46036;-72
2022/02/02 07:00:24;;;;;;;;;16.25;14.25;;;;;11.98;83.26;102206.63;5056746;28;45497;-72
2022/02/02 07:03:10;;;;;;;;;17.25;15.00;;;;;11.92;83.01;102191.81;5070170;27;45621;-72
2022/02/02 07:05:49;;;;;;;;;11.75;9.75;;;;;11.98;83.39;102206.63;5056871;28;45369;-72
2022/02/02 07:34:24;;;;;;;;;21.50;18.75;;;;;12.06;83.34;102241.56;5056386;28;45356;-71
2022/02/02 07:36:55;;;;;;;;;20.75;18.00;;;;;12.07;83.51;102239.78;5056912;28;45411;-72
2022/02/02 07:39:24;;;;;;;;;11.25;11.00;;;;;12.05;83.44;102241.56;5058057;28;46066;-72
2022/02/02 07:41:57;;;;;;;;;15.50;13.75;;;;;12.08;83.24;102244.13;5055719;28;45422;-71
2022/02/02 07:44:30;;;;;;;;;11.50;11.00;;;;;12.09;83.23;102251.13;5053509;28;45536;-72
2022/02/02 07:46:59;;;;;;;;;12.25;10.25;;;;;12.09;83.40;102248.50;5056928;28;45586;-72
2022/02/02 07:49:30;;;;;;;;;5.75;5.00;;;;;12.13;83.25;102252.78;5055742;28;46613;-72
2022/02/02 07:51:56;;;;;;;;;8.00;5.00;;;;;12.13;83.23;102248.38;5056634;28;45852;-72
2022/02/02 07:54:27;;;;;;;;;6.25;5.25;;;;;12.12;83.29;102245.81;5056898;28;45467;-72
2022/02/02 07:56:53;;;;;;;;;8.00;7.50;;;;;12.16;83.48;102256.22;5056997;28;45565;-72
2022/02/02 08:01:47;;;;;;;;;7.25;7.00;;;;;12.20;83.64;102260.50;5055423;28;45546;-72
2022/02/02 08:04:13;;;;;;;;;10.25;10.25;;;;;12.23;82.88;102255.16;5057378;28;45389;-72
2022/02/02 08:06:41;;;;;;;;;4.00;4.00;;;;;12.25;83.12;102250.69;5056291;28;45474;-72
2022/02/02 08:09:09;;;;;;;;;11.00;7.50;;;;;12.23;82.99;102256.94;5056131;28;46599;-72
2022/02/02 08:11:37;;;;;;;;;14.50;11.25;;;;;12.28;82.72;102271.72;5056646;28;45763;-73
2022/02/02 08:14:03;;;;;;;;;11.75;9.50;;;;;12.29;82.87;102264.69;5059082;28;45468;-72
2022/02/02 08:16:30;;;;;;;;;17.00;12.00;;;;;12.32;83.11;102264.63;5057328;28;45494;-72
2022/02/02 08:18:56;;;;;;;;;19.50;15.50;;;;;12.35;83.15;102271.56;5056216;28;46196;-72
2022/02/02 08:21:22;;;;;;;;;4.25;4.25;;;;;12.40;83.17;102272.31;5060322;28;45417;-72
2022/02/02 08:23:49;;;;;;;;;15.75;13.00;;;;;12.38;82.54;102253.03;5060511;28;45531;-72
2022/02/02 08:26:16;;;;;;;;;12.00;11.00;;;;;12.44;82.55;102263.41;5059040;27;46005;-72
2022/02/02 08:28:43;;;;;;;;;6.75;4.75;;;;;12.46;82.51;102269.50;5050894;28;46348;-72
2022/02/02 08:31:08;;;;;;;;;8.00;7.25;;;;;12.43;82.41;102262.56;5056848;28;45419;-73
2022/02/02 08:33:38;;;;;;;;;10.00;7.00;;;;;12.50;82.64;102271.16;5055751;28;45592;-72
2022/02/02 08:36:09;;;;;;;;;10.75;10.00;;;;;12.54;82.52;102280.72;5057199;28;45521;-72
2022/02/02 08:38:56;;;;;;;;;9.00;7.00;;;;;12.47;82.72;102277.38;5046992;28;45648;-72
2022/02/02 08:41:35;;;;;;;;;3.75;3.50;;;;;12.52;82.52;102280.75;5050641;28;45923;-72
2022/02/02 08:44:09;;;;;;;;;8.00;5.00;;;;;12.53;82.62;102276.38;5051765;28;45479;-72
2022/02/02 08:46:37;;;;;;;;;11.00;11.00;;;;;12.57;82.30;102280.63;5052201;28;45571;-72
2022/02/02 08:49:06;;;;;;;;;16.00;14.75;;;;;12.58;82.41;102287.66;5054027;28;46479;-72
2022/02/02 08:51:38;;;;;;;;;27.00;24.00;;;;;12.56;82.49;102286.81;5052544;28;46040;-71
2022/02/02 09:02:03;;;;;;;;;24.50;20.25;;;;;12.48;82.40;102280.91;5051928;28;45966;-72
2022/02/02 09:07:12;;;;;;;;;9.00;8.00;;;;;12.64;82.78;102265.53;5051855;28;45508;-72
2022/02/02 09:36:18;;;;;;;;;5.50;5.50;;;;;13.35;80.25;102273.19;5054674;28;45423;-71
2022/02/02 09:38:44;;;;;;;;;9.25;9.25;;;;;13.41;79.53;102275.63;5051073;27;46453;-72
2022/02/02 09:43:46;;;;;;;;;8.50;7.75;;;;;13.42;78.57;102272.09;5051513;28;45521;-72
2022/02/02 09:46:15;;;;;;;;;5.50;4.00;;;;;13.43;78.83;102273.81;5053616;28;45257;-72
2022/02/02 09:48:47;;;;;;;;;16.75;16.50;;;;;13.37;78.82;102271.38;5053624;28;45482;-72
2022/02/02 09:51:18;;;;;;;;;19.25;17.00;;;;;13.38;78.82;102273.09;5050672;28;45703;-72
2022/02/02 09:53:57;;;;;;;;;30.75;23.00;;;;;13.32;78.77;102266.22;5052060;28;45439;-72
2022/02/02 09:59:33;;;;;;;;;82.75;59.75;;;;;13.36;78.13;102277.53;5041139;28;45534;-72
2022/02/02 10:02:17;;;;;;;;;10.00;8.75;;;;;13.38;78.05;102281.03;5037018;28;46626;-72
2022/02/02 10:05:28;;;;;;;;;16.25;13.50;;;;;13.35;77.99;102277.59;5049682;28;45992;-72
2022/02/02 10:13:16;;;;;;;;;14.50;13.00;;;;;13.28;77.43;102288.34;5053487;28;45329;-72
2022/02/02 10:15:34;;;;;;;;;14.25;12.50;;;;;13.25;77.53;102301.63;5053157;28;45819;-72
2022/02/02 10:18:08;;;;;;;;;5.50;4.50;;;;;13.26;77.95;102298.09;5051529;28;45570;-72
2022/02/02 10:20:34;;;;;;;;;10.75;7.50;;;;;13.25;77.58;102296.34;5050902;28;45632;-72
2022/02/02 10:23:00;;;;;;;;;9.00;9.00;;;;;13.26;77.29;102297.25;5049999;28;45703;-72
2022/02/02 10:25:38;;;;;;;;;5.00;5.00;;;;;13.28;77.24;102290.13;5051156;28;45645;-72
2022/02/02 10:28:12;;;;;;;;;7.50;7.50;;;;;13.32;77.50;102297.06;5064025;28;45783;-72
2022/02/02 10:30:40;;;;;;;;;5.00;5.00;;;;;13.36;76.91;102292.53;5050975;28;45586;-72
2022/02/02 10:33:11;;;;;;;;;4.50;4.25;;;;;13.41;76.61;102290.59;5044601;28;46518;-72
2022/02/02 10:35:42;;;;;;;;;4.75;4.00;;;;;13.41;76.78;102285.31;5052030;28;46276;-72
2022/02/02 10:38:32;;;;;;;;;8.25;5.00;;;;;13.47;76.77;102290.44;5051649;28;45650;-72
2022/02/02 10:43:40;;;;;;;;;14.75;10.50;;;;;13.58;76.27;102314.75;5052272;28;45897;-72
2022/02/02 10:46:25;;;;;;;;;12.75;11.50;;;;;13.64;76.29;102313.72;5051942;28;45351;-72
2022/02/02 10:49:07;;;;;;;;;7.00;6.25;;;;;13.60;76.14;102310.28;5053883;28;45831;-72
2022/02/02 10:57:33;;;;;;;;;4.25;4.00;;;;;13.56;75.48;102317.41;5054136;28;45838;-72
2022/02/02 11:07:13;;;;;;;;;4.00;4.00;;;;;13.70;75.40;102295.03;5051436;28;45897;-71
2022/02/02 11:09:39;;;;;;;;;12.75;9.75;;;;;13.69;75.23;102303.88;5068922;28;45443;-73
2022/02/02 11:12:09;;;;;;;;;26.50;16.75;;;;;13.65;75.22;102295.16;5051977;28;45451;-72
2022/02/02 11:14:57;;;;;;;;;33.50;33.00;;;;;13.68;75.04;102299.50;5051471;28;47225;-72
2022/02/02 11:17:46;;;;;;;;;26.75;24.75;;;;;13.76;75.04;102306.25;5055068;28;45320;-72
2022/02/02 11:20:15;;;;;;;;;12.75;11.00;;;;;13.81;74.82;102303.47;5057384;28;45940;-73
2022/02/02 11:22:49;;;;;;;;;13.00;9.75;;;;;13.74;74.58;102292.25;5057318;28;45442;-72
2022/02/02 11:25:15;;;;;;;;;9.00;6.75;;;;;13.78;74.87;102312.38;5058035;28;45681;-73
2022/02/02 11:27:45;;;;;;;;;8.50;8.50;;;;;13.75;75.05;102312.47;5056884;28;45906;-73
2022/02/02 11:30:22;;;;;;;;;12.50;12.00;;;;;13.71;75.03;102304.66;5057853;28;45517;-71
2022/02/02 11:32:59;;;;;;;;;7.50;6.50;;;;;13.56;74.56;102285.72;5053414;28;45483;-71
2022/02/02 11:35:38;;;;;;;;;9.00;7.75;;;;;13.66;75.18;102306.59;5050049;28;46413;-71
2022/02/02 11:38:16;;;;;;;;;23.25;22.00;;;;;13.62;75.30;102292.59;5050062;28;45857;-71
2022/02/02 11:43:54;;;;;;;;;12.75;11.00;;;;;13.65;74.54;102302.22;5038382;28;46887;-72
2022/02/02 11:49:57;;;;;;;;;4.50;4.50;;;;;13.49;74.63;102289.47;5035813;28;46303;-71
2022/02/02 11:52:44;;;;;;;;;6.25;5.50;;;;;13.57;74.76;102305.97;5050886;28;45690;-72
2022/02/02 11:55:10;;;;;;;;;4.75;4.75;;;;;13.56;74.27;102312.13;5051591;28;45496;-71
2022/02/02 11:58:01;;;;;;;;;11.67;10.00;;;;;13.58;74.51;102318.25;5052857;28;45482;-72
2022/02/02 12:00:34;;;;;;;;;9.50;8.25;;;;;13.55;74.52;102301.63;5053366;28;45397;-71
2022/02/02 12:06:08;;;;;;;;;4.75;4.50;;;;;13.66;74.65;102304.81;5049869;28;45478;-72
2022/02/02 12:35:56;;;;;;;;;5.00;5.00;;;;;13.71;74.50;102289.69;5052734;28;45698;-72
2022/02/02 12:58:00;;;;;;;;;4.00;2.00;;;;;13.75;74.87;102277.25;5049916;28;45558;-72
2022/02/02 13:00:37;;;;;;;;;3.00;2.25;;;;;13.80;74.41;102262.13;5050277;28;45545;-72
2022/02/02 13:03:04;;;;;;;;;1.00;1.00;;;;;13.91;74.08;102283.75;5048418;28;46230;-72
2022/02/02 13:05:31;;;;;;;;;3.00;2.00;;;;;13.85;73.82;102270.75;5064897;27;45550;-72
2022/02/02 13:07:59;;;;;;;;;4.50;2.00;;;;;13.82;73.45;102277.00;5065123;27;45512;-72
2022/02/02 13:10:26;;;;;;;;;2.50;2.50;;;;;13.77;73.63;102263.06;5032828;28;45593;-72
2022/02/02 13:13:05;;;;;;;;;4.25;1.75;;;;;13.78;73.38;102270.09;5051078;28;46255;-72
2022/02/02 13:18:05;;;;;;;;;2.50;1.00;;;;;13.71;73.73;102281.75;5051803;28;45446;-72
2022/02/02 13:20:47;;;;;;;;;2.75;2.25;;;;;13.69;73.73;102288.88;5052200;28;45756;-72
2022/02/02 13:23:32;;;;;;;;;4.25;2.00;;;;;13.67;73.88;102281.88;5051092;28;46378;-72
2022/02/02 13:26:03;;;;;;;;;2.25;2.00;;;;;13.66;73.74;102286.31;5051741;28;45647;-72
2022/02/02 13:28:46;;;;;;;;;3.25;2.25;;;;;13.68;73.55;102292.44;5050036;28;45601;-72
2022/02/02 13:34:40;;;;;;;;;6.25;6.25;;;;;13.57;73.35;102282.19;5033057;28;46370;-72
2022/02/02 13:48:01;;;;;;;;;3.00;3.00;;;;;13.82;72.84;102274.34;5051389;28;45645;-72
2022/02/02 13:58:48;;;;;;;;;2.00;2.00;;;;;14.30;71.67;102288.66;5056399;28;45981;-72
2022/02/02 14:09:38;;;;;;;;;4.00;2.25;;;;;14.48;70.62;102276.63;5055125;28;45734;-72
2022/02/02 14:31:14;;;;;;;;;2.00;1.00;;;;;14.26;70.14;102269.41;5055653;28;45388;-72
2022/02/02 14:33:41;;;;;;;;;0.50;0.50;;;;;14.17;70.11;102264.41;5054677;28;45301;-72
2022/02/02 14:36:10;;;;;;;;;1.00;0.50;;;;;14.09;69.74;102275.25;5054713;28;45698;-72
2022/02/02 14:38:50;;;;;;;;;0.00;0.00;;;;;14.04;70.13;102282.47;5054937;28;45409;-72
2022/02/02 14:41:39;;;;;;;;;1.00;1.00;;;;;13.98;70.38;102282.66;5054228;28;45523;-72
2022/02/02 14:44:26;;;;;;;;;0.00;0.00;;;;;13.95;70.10;102292.47;5055243;28;45423;-72
2022/02/02 14:47:11;;;;;;;;;0.00;0.00;;;;;13.87;69.89;102303.28;5055649;28;45547;-72
2022/02/02 14:49:55;;;;;;;;;0.50;0.00;;;;;13.75;70.22;102291.31;5047225;28;46493;-72
2022/02/02 14:55:33;;;;;;;;;1.25;0.00;;;;;13.64;70.06;102296.06;5057047;28;45338;-72
2022/02/02 15:09:07;;;;;;;;;0.00;0.00;;;;;13.87;69.98;102286.56;5058307;28;45296;-72
2022/02/02 15:27:52;;;;;;;;;0.00;0.00;;;;;13.60;69.92;102290.94;5044623;28;45342;-72
2022/02/02 15:30:29;;;;;;;;;1.50;0.00;;;;;13.50;69.41;102285.06;5033407;28;45603;-72
2022/02/02 15:32:57;;;;;;;;;1.50;1.00;;;;;13.53;69.54;102312.25;5034134;28;46268;-72
2022/02/02 15:35:24;;;;;;;;;0.75;0.00;;;;;13.48;70.00;102305.38;5031138;28;45488;-72
2022/02/02 15:38:02;;;;;;;;;0.25;0.00;;;;;13.47;69.55;102291.31;5031688;28;45637;-72
2022/02/02 15:40:34;;;;;;;;;1.00;1.00;;;;;13.47;69.79;102295.72;5015868;28;45537;-72
2022/02/02 15:43:15;;;;;;;;;1.00;0.00;;;;;13.46;69.58;102299.25;5032378;28;45931;-72
2022/02/02 16:02:08;;;;;;;;;2.00;2.00;;;;;13.25;69.70;102283.13;5052348;28;47898;-72
2022/02/02 16:04:36;;;;;;;;;3.00;0.75;;;;;13.21;69.93;102272.72;5052376;28;46567;-72
2022/02/02 16:07:04;;;;;;;;;1.00;1.00;;;;;13.21;70.28;102270.97;5054924;28;45415;-72
2022/02/02 16:09:40;;;;;;;;;4.00;1.75;;;;;13.21;69.97;102272.72;5054490;28;45486;-72
2022/02/02 16:12:16;;;;;;;;;0.50;0.50;;;;;13.19;70.18;102267.44;5052804;28;45482;-72
2022/02/02 16:14:53;;;;;;;;;2.25;2.25;;;;;13.17;70.55;102274.56;5052827;28;45576;-72
2022/02/02 16:36:24;;;;;;;;;2.50;2.00;;;;;12.93;70.79;102276.13;4973595;28;45473;-72
2022/02/02 16:39:06;;;;;;;;;3.50;2.75;;;;;12.88;70.63;102269.25;4973562;28;45343;-72
2022/02/02 16:44:16;;;;;;;;;2.00;1.00;;;;;12.84;70.73;102260.53;4973579;28;45671;-71
2022/02/02 16:46:42;;;;;;;;;1.00;1.00;;;;;12.79;70.37;102260.69;4975024;28;45605;-71
2022/02/02 16:49:08;;;;;;;;;0.50;0.50;;;;;12.76;70.65;102252.84;4974393;28;45429;-68
2022/02/02 16:51:34;;;;;;;;;1.25;1.00;;;;;12.71;70.74;102257.38;4974021;28;45517;-69
2022/02/02 16:54:02;;;;;;;;;4.25;2.00;;;;;12.70;70.71;102249.53;4974176;28;45499;-68
2022/02/02 17:31:15;;;;;;;;;2.50;2.50;;;;;12.49;69.65;102258.88;5054504;28;45410;-71
2022/02/02 17:33:49;;;;;;;;;2.25;2.25;;;;;12.41;69.77;102245.91;5053911;28;45286;-71
2022/02/02 17:36:23;;;;;;;;;4.00;2.75;;;;;12.43;69.53;102243.25;5049389;28;45632;-71
2022/02/02 17:38:54;;;;;;;;;2.25;2.25;;;;;12.40;69.53;102244.16;5044614;28;45589;-72
2022/02/02 18:14:54;;;;;;;;;4.50;3.00;;;;;12.33;69.19;102258.44;5005873;28;45665;-71
2022/02/02 18:19:20;;;;;;;;;4.00;3.00;;;;;12.30;69.23;102278.72;5006401;28;45632;-71
2022/02/02 18:21:46;;;;;;;;;4.00;3.25;;;;;12.28;69.12;102274.34;5006944;28;46674;-71
2022/02/02 18:24:24;;;;;;;;;5.00;4.00;;;;;12.27;69.50;102272.63;5006084;28;45768;-71
2022/02/02 18:27:00;;;;;;;;;7.00;5.00;;;;;12.34;69.09;102283.00;5005416;28;45388;-71
2022/02/02 18:29:42;;;;;;;;;4.25;4.00;;;;;12.36;69.17;102286.47;5007736;28;45534;-71
2022/02/02 18:34:46;;;;;;;;;3.00;3.00;;;;;12.31;68.97;102269.91;5008335;28;45454;-71
2022/02/02 18:38:08;;;;;;;;;6.75;5.00;;;;;12.31;69.02;102264.63;5010747;28;45734;-71
2022/02/02 18:48:28;;;;;;;;;4.00;4.00;;;;;12.23;68.35;102265.69;5050864;28;45345;-70
2022/02/02 18:51:30;;;;;;;;;3.00;2.75;;;;;12.19;68.62;102253.50;5054857;28;45493;-70
2022/02/02 19:04:40;;;;;;;;;5.50;3.25;;;;;12.07;68.83;102253.81;5050891;28;45568;-71
2022/02/02 19:37:17;;;;;;;;;4.00;3.00;;;;;12.03;68.46;102246.88;5041739;28;45498;-71
2022/02/02 19:54:48;;;;;;;;;3.00;3.00;;;;;11.94;67.99;102247.97;5053145;28;45620;-72
2022/02/02 20:11:42;;;;;;;;;3.00;3.00;;;;;12.04;67.53;102253.00;5049832;28;45913;-72
2022/02/02 20:14:09;;;;;;;;;2.00;2.00;;;;;12.01;66.87;102256.59;5045559;28;45532;-72
2022/02/02 20:16:34;;;;;;;;;3.50;1.75;;;;;11.94;67.15;102252.38;5051139;28;45422;-72
2022/02/02 20:19:01;;;;;;;;;2.50;1.75;;;;;11.86;67.46;102249.94;5051987;28;45517;-72
2022/02/02 20:21:31;;;;;;;;;3.50;2.75;;;;;11.89;67.14;102255.13;5052197;28;45380;-72
2022/02/02 20:23:58;;;;;;;;;3.50;3.00;;;;;11.82;66.96;102252.69;5051218;28;45349;-72
2022/02/02 20:26:27;;;;;;;;;4.00;2.50;;;;;11.81;66.77;102264.94;5045877;28;45467;-72
2022/02/02 20:28:52;;;;;;;;;6.25;5.25;;;;;11.82;67.11;102271.97;5045996;28;46553;-72
2022/02/02 20:31:18;;;;;;;;;5.00;4.00;;;;;11.77;66.95;102273.81;5049582;28;45478;-72
2022/02/02 20:33:43;;;;;;;;;4.25;3.75;;;;;11.72;67.12;102263.41;5053120;28;45478;-72
2022/02/02 20:36:09;;;;;;;;;4.00;2.50;;;;;11.75;67.23;102271.22;5049791;28;45518;-72
2022/02/02 20:38:36;;;;;;;;;4.25;3.75;;;;;11.74;67.04;102273.88;5049654;28;46350;-72
2022/02/02 20:41:02;;;;;;;;;3.75;2.50;;;;;11.65;67.04;102266.22;5049693;28;45888;-72
2022/02/02 20:43:34;;;;;;;;;2.75;2.00;;;;;11.67;66.95;102275.78;5062081;28;45466;-72
2022/02/02 20:47:13;;;;;;;;;7.00;5.25;;;;;11.63;66.83;102282.03;5051974;28;45460;-72
2022/02/02 21:10:29;;;;;;;;;4.75;4.00;;;;;11.66;67.57;102276.72;5048250;28;45527;-72
2022/02/02 21:15:40;;;;;;;;;5.00;5.00;;;;;11.70;67.04;102269.63;5046419;28;46658;-72
2022/02/02 21:18:11;;;;;;;;;2.00;2.00;;;;;11.75;67.14;102267.75;5051265;28;45484;-72
2022/02/02 21:20:51;;;;;;;;;2.50;2.00;;;;;11.79;67.28;102279.03;5038926;28;46301;-72
2022/02/02 21:28:37;;;;;;;;;2.75;1.50;;;;;11.79;66.90;102268.50;5049490;28;45407;-72
2022/02/02 21:31:03;;;;;;;;;3.00;3.00;;;;;11.77;67.02;102266.78;5050073;28;46349;-71
2022/02/02 21:33:29;;;;;;;;;3.75;2.00;;;;;11.76;66.93;102256.28;5051531;28;45451;-71
2022/02/02 21:35:57;;;;;;;;;3.25;2.00;;;;;11.82;66.81;102257.94;5053103;27;45480;-71
2022/02/02 21:38:35;;;;;;;;;3.00;3.00;;;;;11.79;66.56;102257.97;5048493;28;45399;-72
2022/02/02 21:41:00;;;;;;;;;3.50;2.75;;;;;11.77;66.44;102258.88;5047450;28;45536;-72
2022/02/02 21:43:28;;;;;;;;;2.75;2.75;;;;;11.78;66.92;102265.00;5048293;28;45429;-72
2022/02/02 21:45:58;;;;;;;;;3.25;3.25;;;;;11.75;66.69;102260.69;5037301;28;45782;-71
2022/02/02 21:48:32;;;;;;;;;3.75;3.75;;;;;11.71;66.51;102248.50;5044644;28;45421;-71
2022/02/02 21:51:03;;;;;;;;;3.75;2.00;;;;;11.69;66.67;102242.41;5042811;28;46510;-72
2022/02/02 21:53:29;;;;;;;;;3.00;2.00;;;;;11.66;66.61;102237.22;5050128;28;45586;-71
2022/02/02 21:55:54;;;;;;;;;2.50;2.00;;;;;11.69;66.94;102245.03;5044698;28;45451;-72
2022/02/02 21:58:21;;;;;;;;;2.75;2.00;;;;;11.69;66.63;102247.69;5048717;28;45431;-72
2022/02/02 22:00:46;;;;;;;;;4.00;4.00;;;;;11.67;67.00;102245.97;5037792;28;46527;-71
2022/02/02 22:03:12;;;;;;;;;4.25;3.25;;;;;11.57;67.47;102226.03;5045809;28;60251;-71
2022/02/02 22:05:38;;;;;;;;;5.00;4.00;;;;;11.68;67.36;102253.81;5044002;28;45758;-72
2022/02/02 22:08:08;;;;;;;;;5.00;4.00;;;;;11.66;67.89;102254.78;5046313;28;45396;-72
2022/02/02 22:10:34;;;;;;;;;11.75;4.75;;;;;11.62;68.71;102240.81;5063824;27;46278;-72
2022/02/02 22:13:00;;;;;;;;;7.75;5.50;;;;;11.55;69.01;102230.47;5050324;28;45506;-72
2022/02/02 22:15:37;;;;;;;;;6.75;6.75;;;;;11.56;69.25;102233.06;5048212;28;45446;-72
2022/02/02 22:18:03;;;;;;;;;10.00;7.50;;;;;11.55;69.67;102230.47;5047035;28;45510;-71
2022/02/02 22:20:30;;;;;;;;;11.25;7.25;;;;;11.54;69.96;102228.72;5050434;28;45466;-71
2022/02/02 22:22:55;;;;;;;;;9.50;7.25;;;;;11.56;69.87;102229.56;5049312;28;45432;-71
2022/02/02 22:25:21;;;;;;;;;10.25;8.00;;;;;11.48;69.97;102219.19;5048688;28;45711;-72
2022/02/02 22:27:47;;;;;;;;;7.50;7.00;;;;;11.44;70.04;102209.66;5050768;28;45428;-71
2022/02/02 22:30:12;;;;;;;;;11.00;9.25;;;;;11.45;70.07;102214.00;5048113;28;46519;-71
2022/02/02 22:32:37;;;;;;;;;8.25;8.25;;;;;11.46;70.47;102221.88;5046805;28;45491;-72
2022/02/02 22:35:04;;;;;;;;;11.75;8.00;;;;;11.50;70.69;102228.78;5049972;28;45427;-71
2022/02/02 22:37:29;;;;;;;;;9.50;8.50;;;;;11.45;70.38;102220.13;5048300;28;45446;-72